Time;durP1;ratioP1;P1;durP2;ratioP2;P2;SDS_P1;SDS_P2;PMS_P1;PMS_P2;Temp;Humidity;BMP_temperature;BMP_pressure;BME280_temperature;BME280_humidity;BME280_pressure;Samples;Min_cycle;Max_cycle;Signal;HPM_P1;HPM_P2
2023/06/11 00:00:09;;;;;;;0.77;0.47;;;;;;;15.35;33.29;101678.38;5129385;28;20083;-60
2023/06/11 00:02:35;;;;;;;0.30;0.30;;;;;;;15.15;33.72;101669.81;5129286;28;20019;-61
2023/06/11 00:05:07;;;;;;;0.50;0.50;;;;;;;15.31;33.51;101676.69;5129441;28;20030;-61
2023/06/11 00:07:33;;;;;;;;;;;;;;;15.34;33.51;101681.91;5129914;28;20045;-61
2023/06/11 00:09:58;;;;;;;0.52;0.50;;;;;;;14.99;33.89;101675.16;5129111;28;19912;-61
2023/06/11 00:12:23;;;;;;;0.20;0.20;;;;;;;15.43;33.52;101688.78;5129127;28;20028;-62
2023/06/11 00:14:49;;;;;;;0.55;0.55;;;;;;;15.04;33.96;101682.97;5129116;28;20026;-61
2023/06/11 00:17:14;;;;;;;0.80;0.60;;;;;;;14.83;34.44;101692.69;5128905;28;20016;-61
2023/06/11 00:19:40;;;;;;;0.73;0.60;;;;;;;14.66;34.97;101697.97;5129176;28;20098;-60
2023/06/11 00:22:08;;;;;;;0.60;0.60;;;;;;;14.61;35.23;101701.50;5128762;28;20441;-61
2023/06/11 00:24:34;;;;;;;0.47;0.47;;;;;;;14.55;35.60;101684.97;5128855;28;20045;-61
2023/06/11 00:27:01;;;;;;;0.30;0.30;;;;;;;14.61;35.82;101688.44;5128827;28;20024;-60
2023/06/11 00:29:27;;;;;;;0.40;0.40;;;;;;;14.34;36.41;101694.63;5129022;28;20027;-60
2023/06/11 00:31:54;;;;;;;0.40;0.40;;;;;;;14.34;36.71;101697.25;5129027;28;20023;-61
2023/06/11 00:34:19;;;;;;;0.85;0.68;;;;;;;14.14;37.18;101698.16;5128545;28;20544;-61
2023/06/11 00:36:45;;;;;;;1.38;0.68;;;;;;;14.10;37.22;101701.66;5128914;28;20023;-61
2023/06/11 00:39:11;;;;;;;0.30;0.30;;;;;;;14.28;37.28;101697.25;5128591;28;20035;-61
2023/06/11 00:41:37;;;;;;;0.43;0.43;;;;;;;14.06;37.58;101697.31;5128793;28;20475;-61
2023/06/11 00:44:03;;;;;;;0.60;0.45;;;;;;;14.27;37.33;101701.59;5128820;28;20034;-60
2023/06/11 00:46:31;;;;;;;2.30;0.32;;;;;;;14.24;37.36;101692.06;5127746;28;20067;-60
2023/06/11 00:48:57;;;;;;;0.50;0.50;;;;;;;14.12;37.63;101707.75;5128097;28;20046;-59
2023/06/11 00:51:24;;;;;;;0.80;0.45;;;;;;;13.94;37.83;101711.25;5128559;28;20520;-62
2023/06/11 00:53:54;;;;;;;1.15;1.05;;;;;;;13.84;38.15;101715.63;5128419;28;20049;-61
2023/06/11 00:56:20;;;;;;;0.50;0.50;;;;;;;13.91;38.04;101711.28;5128175;28;20084;-61
2023/06/11 00:58:48;;;;;;;0.77;0.65;;;;;;;13.86;38.12;101712.16;5109895;28;20027;-61
2023/06/11 01:01:29;;;;;;;0.60;0.52;;;;;;;13.72;38.38;101712.16;5128503;28;20015;-61
2023/06/11 01:03:56;;;;;;;1.90;0.70;;;;;;;13.83;38.34;101719.09;5128051;28;20024;-60
2023/06/11 01:06:28;;;;;;;0.63;0.63;;;;;;;13.87;38.40;101718.22;5128272;28;20020;-61
2023/06/11 01:08:57;;;;;;;0.30;0.30;;;;;;;13.91;38.19;101721.72;5128026;28;20015;-60
2023/06/11 01:11:23;;;;;;;0.73;0.60;;;;;;;13.61;38.95;101712.16;5128345;28;20032;-60
2023/06/11 01:13:49;;;;;;;0.55;0.35;;;;;;;13.54;39.37;101722.59;5127996;28;20023;-60
2023/06/11 01:16:36;;;;;;;0.75;0.75;;;;;;;13.56;39.63;101724.31;5127891;28;20024;-60
2023/06/11 01:19:18;;;;;;;0.75;0.47;;;;;;;13.45;39.92;101729.50;5127757;28;20024;-60
2023/06/11 01:21:50;;;;;;;1.15;0.88;;;;;;;13.26;40.29;101728.59;5127778;28;20108;-61
2023/06/11 01:24:15;;;;;;;;;;;;;;;13.36;40.46;101732.09;5128437;28;20027;-60
2023/06/11 01:26:53;;;;;;;0.30;0.30;;;;;;;13.34;40.60;101724.28;5127666;28;19918;-60
2023/06/11 01:29:21;;;;;;;5.47;1.13;;;;;;;13.13;40.96;101720.78;5127723;28;20031;-61
2023/06/11 01:31:49;;;;;;;0.95;0.77;;;;;;;12.92;41.54;101726.81;5127725;28;20047;-61
2023/06/11 01:34:14;;;;;;;0.47;0.47;;;;;;;13.23;41.04;101716.44;5127611;28;20098;-61
2023/06/11 01:36:40;;;;;;;0.73;0.68;;;;;;;13.02;41.49;101723.34;5109229;28;20044;-61
2023/06/11 01:39:05;;;;;;;1.02;0.88;;;;;;;12.94;41.67;101721.59;5127761;28;20481;-60
2023/06/11 01:41:31;;;;;;;1.20;0.77;;;;;;;12.89;42.26;101725.06;5127473;28;20091;-60
2023/06/11 01:43:56;;;;;;;1.30;0.80;;;;;;;12.81;42.63;101724.16;5127347;28;20467;-61
2023/06/11 01:46:22;;;;;;;0.47;0.47;;;;;;;12.80;42.73;101735.44;5109023;28;20051;-61
2023/06/11 01:48:48;;;;;;;0.40;0.40;;;;;;;12.91;42.73;101734.63;5127017;28;20031;-62
2023/06/11 01:51:14;;;;;;;0.93;0.70;;;;;;;13.00;42.57;101732.91;5127298;28;20024;-62
2023/06/11 01:53:43;;;;;;;0.40;0.40;;;;;;;12.84;42.78;101726.75;5127285;28;20049;-61
2023/06/11 01:56:09;;;;;;;0.47;0.40;;;;;;;12.97;42.69;101734.66;5127189;28;20019;-61
2023/06/11 01:58:37;;;;;;;1.75;0.75;;;;;;;12.78;43.23;101731.97;5126819;28;20019;-61
2023/06/11 02:01:02;;;;;;;4.38;0.90;;;;;;;12.88;43.15;101736.34;5127070;28;20046;-62
2023/06/11 02:03:28;;;;;;;0.35;0.35;;;;;;;12.72;43.47;101750.19;5126707;28;20016;-61
2023/06/11 02:05:53;;;;;;;1.35;0.75;;;;;;;12.50;43.99;101744.88;5127010;28;20026;-61
2023/06/11 02:08:19;;;;;;;0.40;0.40;;;;;;;12.62;43.87;101742.31;5127042;28;20024;-61
2023/06/11 02:10:45;;;;;;;0.50;0.50;;;;;;;12.52;44.07;101748.38;5127142;28;20016;-61
2023/06/11 02:13:10;;;;;;;0.30;0.30;;;;;;;12.51;44.06;101741.41;5126700;28;20045;-62
2023/06/11 02:15:36;;;;;;;0.35;0.35;;;;;;;12.57;44.34;101745.78;5126853;28;20028;-62
2023/06/11 02:18:01;;;;;;;0.30;0.30;;;;;;;12.76;43.99;101749.34;5126432;28;20096;-62
2023/06/11 02:20:27;;;;;;;1.50;1.13;;;;;;;12.48;44.44;101742.25;5126642;28;20047;-61
2023/06/11 02:22:52;;;;;;;0.75;0.40;;;;;;;12.62;44.25;101744.94;5126529;28;20161;-61
2023/06/11 02:25:18;;;;;;;0.63;0.63;;;;;;;12.54;44.26;101749.22;5126669;28;20547;-62
2023/06/11 02:27:43;;;;;;;0.95;0.68;;;;;;;12.73;43.79;101739.75;5126767;28;20020;-62
2023/06/11 02:30:09;;;;;;;1.92;0.80;;;;;;;12.45;44.13;101737.03;5126595;28;20528;-61
2023/06/11 02:32:34;;;;;;;0.40;0.40;;;;;;;12.64;44.29;101737.13;5126349;28;20106;-61
2023/06/11 02:35:00;;;;;;;0.35;0.35;;;;;;;12.56;44.45;101747.50;5126475;28;20085;-61
2023/06/11 02:37:26;;;;;;;0.60;0.60;;;;;;;12.85;43.87;101740.69;5126490;28;20103;-61
2023/06/11 02:39:51;;;;;;;0.38;0.38;;;;;;;12.73;44.12;101742.38;5126220;28;20023;-60
2023/06/11 02:42:16;;;;;;;0.85;0.60;;;;;;;12.41;44.85;101760.47;5126330;28;20027;-61
2023/06/11 02:44:42;;;;;;;1.05;0.73;;;;;;;12.49;44.63;101761.38;5126346;28;20024;-61
2023/06/11 02:47:07;;;;;;;0.60;0.60;;;;;;;12.49;44.52;101749.22;5126261;28;20020;-61
2023/06/11 02:49:33;;;;;;;1.95;1.60;;;;;;;12.34;44.97;101763.03;5126129;28;20024;-61
2023/06/11 02:51:59;;;;;;;0.93;0.60;;;;;;;12.25;45.10;101753.41;5125950;28;20025;-61
2023/06/11 02:54:24;;;;;;;1.30;1.20;;;;;;;12.30;45.15;101755.19;5126245;28;20043;-60
2023/06/11 02:56:50;;;;;;;0.50;0.50;;;;;;;12.38;45.04;101756.97;5126243;28;20015;-62
2023/06/11 02:59:15;;;;;;;1.27;0.50;;;;;;;12.20;45.37;101752.53;5126211;28;20015;-61
2023/06/11 03:01:40;;;;;;;1.75;0.75;;;;;;;12.25;45.32;101756.00;5126021;28;20023;-61
2023/06/11 03:04:06;;;;;;;0.60;0.60;;;;;;;12.31;45.41;101754.31;5125880;28;20030;-60
2023/06/11 03:06:33;;;;;;;0.43;0.43;;;;;;;12.29;45.47;101749.09;5126051;28;20023;-63
2023/06/11 03:08:58;;;;;;;0.77;0.75;;;;;;;12.45;45.42;101752.66;5125863;28;20075;-60
2023/06/11 03:11:23;;;;;;;0.68;0.68;;;;;;;12.67;44.92;101751.91;5125555;28;20051;-60
2023/06/11 03:13:49;;;;;;;0.43;0.43;;;;;;;12.68;44.81;101728.47;5125770;28;20102;-61
2023/06/11 03:16:14;;;;;;;0.30;0.30;;;;;;;13.07;44.07;101745.94;5125943;28;20103;-61
2023/06/11 03:18:42;;;;;;;0.30;0.30;;;;;;;13.11;44.13;101746.00;5125789;28;20046;-61
2023/06/11 03:21:07;;;;;;;0.93;0.93;;;;;;;13.35;43.54;101740.81;5107365;28;20080;-62
2023/06/11 03:23:33;;;;;;;0.40;0.40;;;;;;;13.45;43.24;101745.16;5125751;28;20027;-61
2023/06/11 03:25:59;;;;;;;0.50;0.50;;;;;;;13.30;43.49;101726.88;5125700;28;20047;-61
2023/06/11 03:28:26;;;;;;;8.63;0.85;;;;;;;13.26;43.97;101741.66;5125697;28;20022;-61
2023/06/11 03:30:51;;;;;;;1.40;0.68;;;;;;;13.47;43.63;101742.56;5125664;28;20035;-61
2023/06/11 03:33:17;;;;;;;1.33;0.60;;;;;;;13.84;42.91;101749.56;5125801;28;20031;-61
2023/06/11 03:35:42;;;;;;;7.80;1.05;;;;;;;13.74;43.75;101749.56;5125754;28;20016;-61
2023/06/11 03:38:08;;;;;;;0.82;0.70;;;;;;;14.09;42.66;101745.19;5125563;28;20020;-60
2023/06/11 03:40:33;;;;;;;0.82;0.70;;;;;;;14.24;42.43;101748.63;5125697;28;20055;-60
2023/06/11 03:42:59;;;;;;;2.22;0.80;;;;;;;14.28;42.78;101744.28;5107396;28;20058;-61
2023/06/11 03:45:25;;;;;;;0.75;0.50;;;;;;;14.82;41.72;101744.13;5125853;28;20102;-62
2023/06/11 03:47:52;;;;;;;1.38;0.73;;;;;;;14.86;41.49;101751.06;5125616;28;20488;-61
2023/06/11 03:50:18;;;;;;;2.05;0.55;;;;;;;15.05;41.21;101739.66;5125604;28;20019;-61
2023/06/11 03:52:44;;;;;;;1.00;0.90;;;;;;;15.23;41.10;101749.13;5125538;28;20027;-61
2023/06/11 03:55:10;;;;;;;1.77;0.98;;;;;;;15.48;40.41;101741.97;5125700;28;20027;-62
2023/06/11 03:57:35;;;;;;;1.95;0.85;;;;;;;15.52;40.08;101734.97;5125655;28;20020;-61
2023/06/11 04:00:01;;;;;;;0.38;0.38;;;;;;;15.91;39.00;101742.47;5125447;28;20096;-61
2023/06/11 04:02:27;;;;;;;0.65;0.65;;;;;;;15.85;38.68;101740.78;5106878;28;20382;-61
2023/06/11 04:04:53;;;;;;;1.27;0.77;;;;;;;15.61;39.38;101739.25;5125596;28;20432;-61
2023/06/11 04:07:18;;;;;;;0.52;0.50;;;;;;;15.56;39.59;101739.28;5125635;28;20019;-61
2023/06/11 04:09:43;;;;;;;0.60;0.60;;;;;;;15.80;39.38;101744.34;5107017;28;20020;-61
2023/06/11 04:12:09;;;;;;;0.85;0.63;;;;;;;15.80;39.54;101742.56;5125377;28;20022;-61
2023/06/11 04:14:35;;;;;;;1.20;0.52;;;;;;;16.14;39.00;101740.53;5125384;28;20039;-61
2023/06/11 04:17:00;;;;;;;0.85;0.65;;;;;;;16.42;38.28;101748.13;5125315;28;20020;-61
2023/06/11 04:19:26;;;;;;;2.60;0.73;;;;;;;16.46;39.05;101749.81;5125181;28;20045;-62
2023/06/11 04:21:51;;;;;;;1.20;0.70;;;;;;;16.78;38.70;101740.69;5127099;28;20054;-62
2023/06/11 04:24:16;;;;;;;2.05;0.50;;;;;;;17.20;37.60;101734.03;5129113;28;20028;-60
2023/06/11 04:26:43;;;;;;;4.10;0.70;;;;;;;17.14;37.03;101734.97;5128931;28;20026;-61
2023/06/11 04:29:08;;;;;;;2.13;0.50;;;;;;;17.14;36.93;101747.25;5129227;28;20356;-61
2023/06/11 04:31:34;;;;;;;1.48;0.60;;;;;;;17.11;36.89;101731.53;5128997;28;20027;-61
2023/06/11 04:34:06;;;;;;;7.07;0.52;;;;;;;17.09;36.86;101737.66;5128612;28;20028;-61
2023/06/11 04:36:32;;;;;;;1.00;0.65;;;;;;;17.28;37.09;101733.91;5128919;28;20019;-61
2023/06/11 04:39:02;;;;;;;1.08;0.60;;;;;;;17.57;36.43;101737.84;5128749;28;20105;-61
2023/06/11 04:41:29;;;;;;;0.40;0.40;;;;;;;17.69;35.64;101735.00;5129038;28;20019;-60
2023/06/11 04:43:55;;;;;;;0.57;0.50;;;;;;;17.60;35.29;101729.91;5128723;28;20026;-60
2023/06/11 04:46:21;;;;;;;0.60;0.57;;;;;;;17.58;35.56;101742.19;5128679;28;20024;-61
2023/06/11 04:48:50;;;;;;;0.80;0.47;;;;;;;17.64;35.84;101743.81;5128488;28;20428;-61
2023/06/11 04:51:16;;;;;;;0.30;0.30;;;;;;;17.81;34.96;101728.66;5128834;28;20019;-60
2023/06/11 04:53:42;;;;;;;0.55;0.40;;;;;;;17.49;35.86;101734.47;5128308;28;20376;-60
2023/06/11 04:56:08;;;;;;;1.05;0.60;;;;;;;17.83;36.38;101740.00;5110650;28;20016;-60
2023/06/11 04:58:33;;;;;;;1.45;0.73;;;;;;;18.48;35.11;101738.84;5128323;28;20019;-61
2023/06/11 05:00:59;;;;;;;0.57;0.57;;;;;;;18.60;34.54;101732.44;5128333;28;20027;-60
2023/06/11 05:03:26;;;;;;;0.40;0.40;;;;;;;18.69;35.12;101732.28;5128204;28;20065;-61
2023/06/11 05:05:53;;;;;;;0.82;0.60;;;;;;;18.80;33.68;101725.00;5128284;28;20088;-61
2023/06/11 05:08:21;;;;;;;0.38;0.38;;;;;;;18.63;34.49;101722.72;5128156;28;20032;-63
2023/06/11 05:10:47;;;;;;;0.60;0.40;;;;;;;18.81;33.83;101720.59;5128256;28;20024;-61
2023/06/11 05:13:13;;;;;;;1.38;0.57;;;;;;;18.81;34.58;101724.13;5127981;28;20030;-62
2023/06/11 05:15:39;;;;;;;0.98;0.65;;;;;;;19.19;35.09;101720.66;5128253;28;20016;-62
2023/06/11 05:18:05;;;;;;;0.50;0.50;;;;;;;19.74;33.60;101720.19;5127855;28;20024;-61
2023/06/11 05:20:30;;;;;;;1.08;0.77;;;;;;;19.87;32.87;101717.22;5127922;28;20043;-62
2023/06/11 05:23:02;;;;;;;1.40;0.60;;;;;;;19.94;31.98;101713.50;5128022;28;20023;-60
2023/06/11 05:25:29;;;;;;;1.17;0.70;;;;;;;19.79;32.47;101718.28;5128076;28;20262;-62
2023/06/11 05:28:01;;;;;;;1.02;0.65;;;;;;;19.90;32.83;101714.50;5127849;28;20476;-61
2023/06/11 05:30:29;;;;;;;0.68;0.50;;;;;;;20.08;32.69;101715.78;5128001;28;20023;-61
2023/06/11 05:32:56;;;;;;;0.82;0.60;;;;;;;20.21;32.19;101718.13;5126836;28;20078;-61
2023/06/11 05:35:25;;;;;;;0.38;0.38;;;;;;;20.29;32.09;101722.25;5127609;28;20020;-60
2023/06/11 05:37:51;;;;;;;1.10;0.43;;;;;;;20.44;32.25;101709.53;5127560;28;20610;-62
2023/06/11 05:40:17;;;;;;;0.77;0.65;;;;;;;20.76;32.04;101718.25;5109543;28;20475;-61
2023/06/11 05:42:42;;;;;;;1.02;0.75;;;;;;;20.96;31.45;101719.44;5127446;28;20035;-61
2023/06/11 05:45:08;;;;;;;1.13;0.57;;;;;;;20.95;31.02;101720.34;5127522;28;20023;-62
2023/06/11 05:47:34;;;;;;;0.35;0.35;;;;;;;21.03;30.77;101715.69;5127186;28;20027;-61
2023/06/11 05:50:00;;;;;;;0.57;0.57;;;;;;;21.14;30.56;101719.75;5109633;28;20104;-61
2023/06/11 05:52:26;;;;;;;1.02;0.80;;;;;;;21.26;30.79;101707.94;5127505;28;20092;-62
2023/06/11 05:54:51;;;;;;;1.30;0.60;;;;;;;21.60;30.18;101722.66;5127500;28;20573;-61
2023/06/11 05:57:19;;;;;;;0.95;0.55;;;;;;;21.66;29.51;101716.31;5127337;28;20027;-62
2023/06/11 05:59:44;;;;;;;0.93;0.85;;;;;;;21.52;29.96;101720.28;5127120;28;20120;-61
2023/06/11 06:02:09;;;;;;;1.63;0.70;;;;;;;21.36;29.81;101713.78;5127176;28;20070;-61
2023/06/11 06:04:35;;;;;;;0.40;0.40;;;;;;;21.44;30.85;101721.47;5127027;28;20030;-60
2023/06/11 06:07:00;;;;;;;1.52;0.65;;;;;;;21.81;30.03;101719.34;5127076;28;20028;-61
2023/06/11 06:09:25;;;;;;;0.52;0.50;;;;;;;21.72;29.58;101717.88;5127100;28;20024;-61
2023/06/11 06:11:51;;;;;;;0.82;0.77;;;;;;;21.70;29.28;101712.63;5127100;28;20024;-61
2023/06/11 06:14:16;;;;;;;0.55;0.50;;;;;;;21.79;29.30;101722.03;5126979;28;20024;-61
2023/06/11 06:16:42;;;;;;;1.83;1.00;;;;;;;21.82;29.99;101716.66;5126951;28;20016;-61
2023/06/11 06:19:08;;;;;;;1.20;0.40;;;;;;;22.03;29.93;101707.09;5126703;28;20187;-61
2023/06/11 06:21:33;;;;;;;0.93;0.65;;;;;;;22.11;29.31;101703.31;5126663;28;20100;-61
2023/06/11 06:23:59;;;;;;;1.05;0.63;;;;;;;21.96;28.74;101712.66;5126702;28;20036;-61
2023/06/11 06:26:25;;;;;;;0.77;0.55;;;;;;;21.85;29.59;101707.75;5126940;28;20102;-61
2023/06/11 06:28:52;;;;;;;0.95;0.60;;;;;;;21.97;29.27;101709.09;5108189;28;20030;-61
2023/06/11 06:31:18;;;;;;;0.77;0.60;;;;;;;21.92;29.26;101709.25;5126638;28;20619;-61
2023/06/11 06:33:43;;;;;;;1.27;0.75;;;;;;;21.89;29.24;101714.66;5125817;28;20090;-62
2023/06/11 06:36:09;;;;;;;0.77;0.60;;;;;;;21.89;29.21;101702.31;5126575;28;20031;-61
2023/06/11 06:38:36;;;;;;;0.40;0.40;;;;;;;21.89;28.98;101712.88;5107998;28;20038;-62
2023/06/11 06:41:02;;;;;;;2.08;0.88;;;;;;;21.77;28.63;101706.25;5126364;28;20034;-62
2023/06/11 06:43:28;;;;;;;1.35;0.40;;;;;;;21.77;29.00;101708.88;5126293;28;20019;-62
2023/06/11 06:45:53;;;;;;;1.10;0.57;;;;;;;21.85;29.05;101700.72;5125431;28;20020;-61
2023/06/11 06:48:20;;;;;;;1.15;0.65;;;;;;;22.12;29.51;101711.19;5126124;28;20019;-61
2023/06/11 06:50:46;;;;;;;1.73;0.45;;;;;;;22.28;28.73;101700.88;5126218;28;20075;-61
2023/06/11 06:53:11;;;;;;;0.68;0.60;;;;;;;22.25;28.58;101706.28;5126072;28;20059;-61
2023/06/11 06:55:37;;;;;;;0.82;0.57;;;;;;;22.14;28.52;101711.16;5126110;28;20030;-61
2023/06/11 06:58:02;;;;;;;0.77;0.60;;;;;;;22.14;29.09;101705.84;5126219;28;20473;-62
2023/06/11 07:00:27;;;;;;;5.30;0.70;;;;;;;22.33;28.83;101706.03;5126122;28;20050;-60
2023/06/11 07:02:53;;;;;;;0.80;0.63;;;;;;;22.52;28.57;101705.34;5125895;28;20440;-60
2023/06/11 07:05:18;;;;;;;0.30;0.30;;;;;;;22.58;26.94;101714.81;5126028;28;20016;-60
2023/06/11 07:07:44;;;;;;;0.57;0.47;;;;;;;22.20;27.83;101717.97;5125636;28;20024;-61
2023/06/11 07:10:09;;;;;;;0.95;0.70;;;;;;;22.02;28.39;101707.16;5125538;28;20034;-61
2023/06/11 07:12:35;;;;;;;0.40;0.40;;;;;;;22.15;28.68;101702.28;5125703;28;20440;-62
2023/06/11 07:15:00;;;;;;;0.93;0.50;;;;;;;22.69;28.19;101717.06;5125822;28;20027;-56
2023/06/11 07:17:27;;;;;;;1.17;0.60;;;;;;;22.82;26.87;101707.72;5125987;28;20026;-58
2023/06/11 07:19:52;;;;;;;0.63;0.60;;;;;;;22.60;27.04;101715.66;5125499;28;20070;-58
2023/06/11 07:22:18;;;;;;;1.63;0.82;;;;;;;22.50;26.72;101713.31;5125801;28;20404;-51
2023/06/11 07:24:47;;;;;;;0.98;0.80;;;;;;;22.44;27.24;101708.28;5125565;28;20043;-51
2023/06/11 07:27:13;;;;;;;0.82;0.43;;;;;;;22.68;27.28;101716.22;5125802;28;20015;-51
2023/06/11 07:29:39;;;;;;;0.68;0.57;;;;;;;22.97;26.59;101713.34;5125513;28;20027;-52
2023/06/11 07:32:06;;;;;;;1.35;1.02;;;;;;;23.07;26.77;101716.47;5125772;28;20157;-52
2023/06/11 07:34:32;;;;;;;0.80;0.60;;;;;;;23.33;25.74;101706.59;5125410;28;20049;-51
2023/06/11 07:36:57;;;;;;;1.33;0.50;;;;;;;23.38;25.85;101694.91;5125279;28;20075;-51
2023/06/11 07:39:22;;;;;;;0.65;0.50;;;;;;;23.70;25.31;101705.06;5125608;28;20035;-51
2023/06/11 07:41:48;;;;;;;0.95;0.73;;;;;;;23.48;25.38;101705.13;5125378;28;20112;-49
2023/06/11 07:44:13;;;;;;;0.82;0.50;;;;;;;23.49;25.74;101713.00;5125252;28;20459;-51
2023/06/11 07:46:39;;;;;;;1.65;0.40;;;;;;;23.85;25.63;101710.63;5125279;28;20024;-52
2023/06/11 07:49:05;;;;;;;1.38;0.60;;;;;;;24.43;25.35;101706.25;5125240;28;20095;-51
2023/06/11 07:51:31;;;;;;;0.90;0.60;;;;;;;24.91;25.12;101697.84;5107097;28;20032;-49
2023/06/11 07:53:58;;;;;;;1.17;0.70;;;;;;;25.31;23.66;101715.41;5125095;28;20024;-53
2023/06/11 07:56:26;;;;;;;0.93;0.60;;;;;;;24.97;22.67;101707.31;5126837;28;20019;-53
2023/06/11 07:58:51;;;;;;;0.50;0.50;;;;;;;24.53;24.10;101701.38;5129213;28;20031;-53
2023/06/11 08:01:17;;;;;;;0.93;0.63;;;;;;;24.79;23.32;101699.28;5129626;28;20424;-48
2023/06/11 08:03:43;;;;;;;0.40;0.40;;;;;;;24.74;23.94;101699.50;5129267;28;20020;-50
2023/06/11 08:06:09;;;;;;;2.67;1.02;;;;;;;24.94;23.97;101692.38;5129313;28;20050;-52
2023/06/11 08:08:35;;;;;;;0.40;0.40;;;;;;;25.25;22.64;101705.94;5129409;28;20071;-50
2023/06/11 08:11:01;;;;;;;2.33;0.70;;;;;;;24.95;22.88;101704.72;5129378;28;20053;-51
2023/06/11 08:13:26;;;;;;;1.35;0.70;;;;;;;24.82;22.77;101692.97;5128982;28;20028;-51
2023/06/11 08:15:52;;;;;;;1.73;0.70;;;;;;;24.56;23.25;101701.25;5129216;28;20455;-50
2023/06/11 08:18:18;;;;;;;0.60;0.60;;;;;;;24.65;23.65;101696.44;5128948;28;20030;-52
2023/06/11 08:20:43;;;;;;;1.52;1.20;;;;;;;25.18;22.17;101688.56;5129045;28;20075;-52
2023/06/11 08:23:09;;;;;;;1.15;0.75;;;;;;;25.18;22.18;101693.88;5128805;28;20073;-54
2023/06/11 08:25:36;;;;;;;2.00;0.63;;;;;;;25.18;22.57;101678.81;5128599;28;20049;-50
2023/06/11 08:28:02;;;;;;;0.95;0.63;;;;;;;25.59;22.01;101688.25;5128700;28;20024;-65
2023/06/11 08:30:27;;;;;;;0.60;0.45;;;;;;;25.59;21.80;101695.41;5128592;28;20024;-59
2023/06/11 08:32:53;;;;;;;0.35;0.35;;;;;;;25.67;20.74;101679.06;5128373;28;20531;-60
2023/06/11 08:35:18;;;;;;;0.95;0.63;;;;;;;25.09;20.74;101688.13;5128727;28;20093;-60
2023/06/11 08:37:45;;;;;;;0.90;0.65;;;;;;;24.98;20.83;101682.47;5128577;28;20023;-60
2023/06/11 08:40:12;;;;;;;0.75;0.55;;;;;;;25.36;20.82;101684.13;5128529;28;20027;-60
2023/06/11 08:42:37;;;;;;;2.22;0.73;;;;;;;25.72;20.99;101688.50;5128678;28;20053;-61
2023/06/11 08:45:03;;;;;;;1.10;0.70;;;;;;;25.93;20.57;101676.81;5128327;28;20028;-59
2023/06/11 08:47:33;;;;;;;0.38;0.38;;;;;;;26.08;21.25;101683.09;5128484;28;20038;-60
2023/06/11 08:50:02;;;;;;;0.52;0.50;;;;;;;26.43;20.83;101680.34;5128308;28;20031;-60
2023/06/11 08:52:31;;;;;;;1.33;0.52;;;;;;;26.42;20.43;101686.59;5128538;28;20035;-60
2023/06/11 08:54:59;;;;;;;0.75;0.63;;;;;;;26.08;20.77;101677.78;5128613;28;20024;-60
2023/06/11 08:57:25;;;;;;;0.50;0.50;;;;;;;26.07;21.38;101670.75;5128251;28;20028;-61
2023/06/11 08:59:50;;;;;;;2.55;0.50;;;;;;;26.65;21.48;101671.13;5128055;28;20030;-60
2023/06/11 09:02:17;;;;;;;1.00;0.70;;;;;;;27.09;19.82;101664.19;5128220;28;20087;-60
2023/06/11 09:04:43;;;;;;;1.60;0.60;;;;;;;27.05;19.17;101661.81;5128065;28;20031;-60
2023/06/11 09:07:09;;;;;;;1.17;0.63;;;;;;;27.08;18.45;101665.16;5128025;28;20136;-61
2023/06/11 09:09:34;;;;;;;0.90;0.63;;;;;;;26.34;19.97;101670.22;5127350;28;20047;-60
2023/06/11 09:12:05;;;;;;;0.85;0.63;;;;;;;26.96;20.41;101669.38;5128046;28;20066;-60
2023/06/11 09:14:31;;;;;;;6.75;0.73;;;;;;;27.69;19.48;101661.59;5128039;28;20068;-60
2023/06/11 09:16:56;;;;;;;0.45;0.40;;;;;;;28.23;18.91;101671.66;5126573;28;20037;-60
2023/06/11 09:19:22;;;;;;;0.52;0.45;;;;;;;28.30;18.79;101662.28;5127926;28;20109;-60
2023/06/11 09:21:56;;;;;;;1.02;0.65;;;;;;;28.69;18.53;101657.97;5127619;28;20509;-60
2023/06/11 09:24:24;;;;;;;0.50;0.30;;;;;;;28.87;17.27;101668.41;5127815;28;20035;-60
2023/06/11 09:26:54;;;;;;;0.80;0.47;;;;;;;28.54;18.17;101659.00;5127700;28;20035;-60
2023/06/11 09:29:21;;;;;;;0.65;0.57;;;;;;;29.10;17.77;101652.69;5127717;28;20030;-60
2023/06/11 09:31:46;;;;;;;2.20;0.50;;;;;;;28.78;17.30;101653.88;5127557;28;20202;-60
2023/06/11 09:34:16;;;;;;;1.13;0.40;;;;;;;28.85;17.82;101656.13;5127448;28;20027;-59
2023/06/11 09:36:46;;;;;;;0.50;0.40;;;;;;;29.69;17.23;101658.50;5127560;28;20049;-60
2023/06/11 09:39:13;;;;;;;1.27;0.65;;;;;;;29.91;16.13;101660.50;5127448;28;20495;-61
2023/06/11 09:41:47;;;;;;;0.35;0.35;;;;;;;29.71;16.20;101658.41;5127430;28;20050;-60
2023/06/11 09:44:13;;;;;;;0.50;0.50;;;;;;;29.24;16.52;101654.41;5126608;28;20451;-61
2023/06/11 09:46:38;;;;;;;0.55;0.50;;;;;;;28.87;16.07;101657.72;5127270;28;20379;-59
2023/06/11 09:49:06;;;;;;;1.38;0.80;;;;;;;28.31;17.47;101662.22;5127164;28;20020;-61
2023/06/11 09:51:31;;;;;;;1.50;0.55;;;;;;;28.92;16.78;101660.09;5127379;28;20019;-60
2023/06/11 09:53:58;;;;;;;1.45;0.65;;;;;;;28.51;17.11;101645.84;5127212;28;20034;-60
2023/06/11 09:56:24;;;;;;;2.75;0.85;;;;;;;28.27;17.20;101670.50;5127089;28;20062;-61
2023/06/11 09:58:51;;;;;;;1.08;0.73;;;;;;;27.78;17.59;101648.63;5127154;28;20043;-60
2023/06/11 10:01:17;;;;;;;0.75;0.63;;;;;;;27.63;17.65;101643.25;5126650;28;20628;-62
2023/06/11 10:03:43;;;;;;;0.70;0.50;;;;;;;28.02;17.32;101640.88;5126404;28;20028;-60
2023/06/11 10:06:15;;;;;;;0.57;0.43;;;;;;;27.84;16.85;101649.06;5126620;28;20035;-60
2023/06/11 10:08:41;;;;;;;2.45;0.60;;;;;;;27.35;17.15;101648.47;5126888;28;20057;-61
2023/06/11 10:11:07;;;;;;;1.95;0.65;;;;;;;26.97;16.76;101640.91;5126754;28;20027;-60
2023/06/11 10:13:34;;;;;;;0.88;0.77;;;;;;;26.71;17.14;101653.97;5126850;28;20050;-61
2023/06/11 10:16:07;;;;;;;0.30;0.30;;;;;;;26.46;17.92;101652.69;5126904;28;20027;-60
2023/06/11 10:18:33;;;;;;;0.95;0.70;;;;;;;26.84;17.53;101656.75;5126640;28;20024;-60
2023/06/11 10:21:01;;;;;;;0.35;0.32;;;;;;;26.54;17.86;101654.91;5126577;28;20055;-60
2023/06/11 10:23:38;;;;;;;0.77;0.50;;;;;;;26.54;18.33;101647.78;5126594;28;20023;-60
2023/06/11 10:26:04;;;;;;;0.55;0.55;;;;;;;27.41;18.29;101655.25;5126596;28;20023;-61
2023/06/11 10:28:42;;;;;;;1.05;0.50;;;;;;;28.13;17.90;101650.03;5126877;28;20049;-60
2023/06/11 10:31:08;;;;;;;0.65;0.50;;;;;;;28.35;17.78;101644.19;5126474;28;20051;-61
2023/06/11 10:33:46;;;;;;;1.13;0.52;;;;;;;28.29;17.39;101645.41;5126470;28;20034;-60
2023/06/11 10:36:25;;;;;;;0.80;0.68;;;;;;;28.25;17.39;101629.69;5126518;28;20023;-59
2023/06/11 10:38:51;;;;;;;1.75;0.47;;;;;;;28.28;17.88;101641.03;5126347;28;20049;-60
2023/06/11 10:41:28;;;;;;;3.38;0.75;;;;;;;28.58;17.33;101632.00;5126336;28;20256;-60
2023/06/11 10:43:55;;;;;;;0.57;0.50;;;;;;;28.91;16.70;101624.50;5126297;28;20046;-60
2023/06/11 10:46:21;;;;;;;3.90;0.60;;;;;;;28.45;17.29;101620.41;5126026;28;20050;-58
2023/06/11 10:48:54;;;;;;;1.25;0.57;;;;;;;28.77;16.59;101627.25;5107685;28;20028;-60
2023/06/11 10:51:21;;;;;;;0.60;0.50;;;;;;;28.86;17.02;101615.06;5126232;28;20024;-60
2023/06/11 10:53:58;;;;;;;0.68;0.50;;;;;;;28.76;15.92;101620.16;5126084;28;20020;-61
2023/06/11 10:56:24;;;;;;;0.98;0.73;;;;;;;28.20;16.27;101630.84;5125405;28;20012;-60
2023/06/11 10:58:50;;;;;;;0.75;0.50;;;;;;;27.29;16.90;101621.31;5126079;28;20597;-61
2023/06/11 11:01:20;;;;;;;1.17;0.60;;;;;;;26.23;17.85;101614.88;5126044;28;20034;-59
2023/06/11 11:03:46;;;;;;;0.50;0.50;;;;;;;25.59;18.46;101613.81;5125824;28;20083;-61
2023/06/11 11:06:13;;;;;;;0.57;0.50;;;;;;;25.57;18.36;101618.38;5125765;28;20089;-61
2023/06/11 11:08:38;;;;;;;2.05;0.93;;;;;;;24.47;19.37;101617.59;5126017;28;20026;-60
2023/06/11 11:11:04;;;;;;;0.82;0.60;;;;;;;24.04;20.05;101611.66;5125835;28;20024;-60
2023/06/11 11:13:30;;;;;;;0.73;0.52;;;;;;;23.83;20.17;101601.97;5125794;28;20494;-60
2023/06/11 11:15:58;;;;;;;1.38;1.00;;;;;;;23.68;20.76;101613.25;5125632;28;20060;-60
2023/06/11 11:18:24;;;;;;;0.63;0.57;;;;;;;23.57;21.00;101608.44;5125545;28;20271;-60
2023/06/11 11:20:53;;;;;;;0.93;0.70;;;;;;;23.47;20.73;101613.28;5125694;28;20506;-60
2023/06/11 11:23:18;;;;;;;1.05;0.60;;;;;;;23.13;21.22;101610.28;5125698;28;20031;-59